createdAt,value
2023-12-23T00:00:17.493Z,30.299000
2023-12-23T00:05:25.604Z,30.299000
2023-12-23T00:10:25.948Z,30.299000
2023-12-23T00:15:19.263Z,30.302000
2023-12-23T00:20:25.701Z,30.302000
2023-12-23T00:25:19.436Z,30.302000
2023-12-23T00:30:19.454Z,30.303000
2023-12-23T00:35:19.480Z,30.303000
2023-12-23T00:40:25.688Z,30.303000
2023-12-23T00:45:25.612Z,30.307000
2023-12-23T00:50:17.685Z,30.307000
2023-12-23T00:55:17.497Z,30.307000
2023-12-23T01:00:25.871Z,30.311000
2023-12-23T01:05:19.823Z,30.311000
2023-12-23T01:10:25.819Z,30.311000
2023-12-23T01:15:16.749Z,30.316000
2023-12-23T01:20:18.727Z,30.316000
2023-12-23T01:25:24.844Z,30.316000
2023-12-23T01:30:24.876Z,30.317000
2023-12-23T01:35:24.791Z,30.317000
2023-12-23T01:40:18.558Z,30.317000
2023-12-23T01:45:24.934Z,30.318000
2023-12-23T01:50:24.764Z,30.318000
2023-12-23T01:55:24.685Z,30.318000
2023-12-23T02:00:24.893Z,30.322000
2023-12-23T02:05:16.892Z,30.322000
2023-12-23T02:10:24.893Z,30.322000
2023-12-23T02:15:18.813Z,30.326000
2023-12-23T02:20:24.986Z,30.326000
2023-12-23T02:25:24.979Z,30.326000
2023-12-23T02:30:24.948Z,30.329000
2023-12-23T02:35:18.725Z,30.329000
2023-12-23T02:40:18.781Z,30.329000
2023-12-23T02:45:25.032Z,30.329000
2023-12-23T02:50:25.076Z,30.329000
2023-12-23T02:55:16.833Z,30.329000
2023-12-23T03:00:16.812Z,30.327000
2023-12-23T03:05:25.198Z,30.327000
2023-12-23T03:10:24.976Z,30.327000
2023-12-23T03:15:18.789Z,30.325000
2023-12-23T03:20:25.205Z,30.325000
2023-12-23T03:25:18.866Z,30.325000
2023-12-23T03:30:25.137Z,30.325000
2023-12-23T03:35:25.224Z,30.325000
2023-12-23T03:40:18.902Z,30.325000
2023-12-23T03:45:18.980Z,30.323000
2023-12-23T03:50:16.997Z,30.323000
2023-12-23T03:55:17.003Z,30.323000
2023-12-23T04:00:25.159Z,30.321000
2023-12-23T04:05:25.245Z,30.321000
2023-12-23T04:10:25.164Z,30.321000
2023-12-23T04:15:25.155Z,30.320000
2023-12-23T04:20:25.245Z,30.320000
2023-12-23T04:25:25.216Z,30.320000
2023-12-23T04:30:25.393Z,30.319000
2023-12-23T04:35:19.128Z,30.319000
2023-12-23T04:40:18.995Z,30.319000
2023-12-23T04:45:17.074Z,30.319000
2023-12-23T04:50:17.194Z,30.319000
2023-12-23T04:55:18.977Z,30.319000
2023-12-23T05:00:18.292Z,30.320000
2023-12-23T05:05:15.861Z,30.320000
2023-12-23T05:10:18.381Z,30.320000
2023-12-23T05:15:24.629Z,30.320000
2023-12-23T05:20:18.459Z,30.320000
2023-12-23T05:25:24.626Z,30.320000
2023-12-23T05:30:24.738Z,30.320000
2023-12-23T05:35:18.546Z,30.320000
2023-12-23T05:40:18.476Z,30.320000
2023-12-23T05:45:24.688Z,30.321000
2023-12-23T05:50:18.481Z,30.321000
2023-12-23T05:55:16.539Z,30.321000
2023-12-23T06:00:24.625Z,30.319000
2023-12-23T06:05:18.722Z,30.319000
2023-12-23T06:10:24.724Z,30.319000
2023-12-23T06:15:18.412Z,30.320000
2023-12-23T06:20:18.615Z,30.320000
2023-12-23T06:25:18.510Z,30.320000
2023-12-23T06:30:18.647Z,30.325000
2023-12-23T06:35:25.051Z,30.325000
2023-12-23T06:40:24.708Z,30.325000
2023-12-23T06:45:16.667Z,30.326000
2023-12-23T06:50:16.749Z,30.326000
2023-12-23T06:55:24.807Z,30.326000
2023-12-23T07:00:25.062Z,30.329000
2023-12-23T07:05:24.961Z,30.329000
2023-12-23T07:10:24.840Z,30.329000
2023-12-23T07:15:24.894Z,30.328000
2023-12-23T07:20:25.008Z,30.328000
2023-12-23T07:25:24.935Z,30.328000
2023-12-23T07:30:18.744Z,30.332000
2023-12-23T07:35:25.195Z,30.332000
2023-12-23T07:40:16.725Z,30.332000
2023-12-23T07:45:16.773Z,30.328000
2023-12-23T07:50:18.932Z,30.328000
2023-12-23T07:55:24.942Z,30.328000
2023-12-23T08:00:25.050Z,30.321000
2023-12-23T08:05:25.102Z,30.321000
2023-12-23T08:10:18.708Z,30.321000
2023-12-23T08:15:24.973Z,30.324000
2023-12-23T08:20:18.893Z,30.324000
2023-12-23T08:25:18.856Z,30.324000
2023-12-23T08:30:18.978Z,30.321000
2023-12-23T08:35:17.116Z,30.321000
2023-12-23T08:40:16.937Z,30.321000
2023-12-23T08:45:25.141Z,30.319000
2023-12-23T08:50:25.213Z,30.319000
2023-12-23T08:55:19.018Z,30.319000
2023-12-23T09:00:25.101Z,30.314000
2023-12-23T09:05:25.256Z,30.314000
2023-12-23T09:10:18.862Z,30.314000
2023-12-23T09:15:25.218Z,30.317000
2023-12-23T09:20:25.304Z,30.317000
2023-12-23T09:25:18.991Z,30.317000
2023-12-23T09:30:17.173Z,30.318000
2023-12-23T09:35:17.160Z,30.318000
2023-12-23T09:40:25.389Z,30.318000
2023-12-23T09:45:19.090Z,30.322000
2023-12-23T09:50:25.473Z,30.322000
2023-12-23T09:55:19.143Z,30.322000
2023-12-23T10:00:19.117Z,30.324000
2023-12-23T10:05:25.372Z,30.324000
2023-12-23T10:10:25.423Z,30.324000
2023-12-23T10:15:25.480Z,30.325000
2023-12-23T10:20:19.308Z,30.325000
2023-12-23T10:25:17.261Z,30.325000
2023-12-23T10:30:25.583Z,30.323000
2023-12-23T10:35:19.321Z,30.323000
2023-12-23T10:40:19.197Z,30.323000
2023-12-23T10:45:25.525Z,30.325000
2023-12-23T10:50:19.396Z,30.325000
2023-12-23T10:55:25.435Z,30.325000
2023-12-23T11:00:19.213Z,30.329000
2023-12-23T11:05:25.944Z,30.329000
2023-12-23T11:10:17.326Z,30.329000
2023-12-23T11:15:17.459Z,30.332000
2023-12-23T11:20:17.492Z,30.332000
2023-12-23T11:25:19.407Z,30.332000
2023-12-23T11:30:25.661Z,30.332000
2023-12-23T11:35:25.717Z,30.332000
2023-12-23T11:40:25.635Z,30.332000
2023-12-23T11:45:25.599Z,30.331000
2023-12-23T11:50:25.774Z,30.331000
2023-12-23T11:55:25.791Z,30.331000
2023-12-23T12:00:19.458Z,30.332000
2023-12-23T12:05:19.658Z,30.332000
2023-12-23T12:10:17.535Z,30.332000
2023-12-23T12:15:17.433Z,30.333000
2023-12-23T12:20:23.770Z,30.333000
2023-12-23T12:25:23.806Z,30.333000
2023-12-23T12:30:23.744Z,30.335000
2023-12-23T12:35:23.875Z,30.335000
2023-12-23T12:40:23.822Z,30.335000
2023-12-23T12:45:17.668Z,30.338000
2023-12-23T12:50:15.657Z,30.338000
2023-12-23T12:55:15.659Z,30.338000
2023-12-23T13:00:17.656Z,30.340000
2023-12-23T13:05:24.054Z,30.340000
2023-12-23T13:10:17.687Z,30.340000
2023-12-23T13:15:17.673Z,30.343000
2023-12-23T13:20:24.140Z,30.343000
2023-12-23T13:25:23.969Z,30.343000
2023-12-23T13:30:17.742Z,30.340000
2023-12-23T13:35:17.770Z,30.340000
2023-12-23T13:40:23.952Z,30.340000
2023-12-23T13:45:15.928Z,30.337000
2023-12-23T13:50:24.091Z,30.337000
2023-12-23T13:55:24.281Z,30.337000
2023-12-23T14:00:24.057Z,30.330000
2023-12-23T14:05:24.189Z,30.330000
2023-12-23T14:10:24.016Z,30.330000
2023-12-23T14:15:23.986Z,30.324000
2023-12-23T14:20:17.895Z,30.324000
2023-12-23T14:25:17.903Z,30.324000
2023-12-23T14:30:18.018Z,30.328000
2023-12-23T14:35:16.075Z,30.328000
2023-12-23T14:40:15.895Z,30.328000
2023-12-23T14:45:24.128Z,30.327000
2023-12-23T14:50:24.689Z,30.327000
2023-12-23T14:55:24.347Z,30.327000
2023-12-23T15:00:24.279Z,30.321000
2023-12-23T15:05:24.473Z,30.321000
2023-12-23T15:10:17.951Z,30.321000
2023-12-23T15:15:24.290Z,30.310000
2023-12-23T15:20:24.342Z,30.310000
2023-12-23T15:25:17.994Z,30.310000
2023-12-23T15:30:16.257Z,30.298000
2023-12-23T15:35:16.074Z,30.298000
2023-12-23T15:40:24.283Z,30.298000
2023-12-23T15:45:18.125Z,30.287000
2023-12-23T15:50:24.396Z,30.287000
2023-12-23T15:55:24.373Z,30.287000
2023-12-23T16:00:55.478Z,30.275000
2023-12-23T16:05:24.710Z,30.275000
2023-12-23T16:10:18.269Z,30.275000
2023-12-23T16:15:24.397Z,30.259000
2023-12-23T16:20:24.714Z,30.259000
2023-12-23T16:25:16.241Z,30.259000
2023-12-23T16:30:18.186Z,30.243000
2023-12-23T16:35:24.701Z,30.243000
2023-12-23T16:40:18.275Z,30.243000
2023-12-23T16:45:24.554Z,30.227000
2023-12-23T16:50:24.624Z,30.227000
2023-12-23T16:55:24.430Z,30.227000
2023-12-23T17:00:18.259Z,30.218000
2023-12-23T17:05:24.692Z,30.218000
2023-12-23T17:10:24.659Z,30.218000
2023-12-23T17:15:16.304Z,30.209000
2023-12-23T17:20:16.452Z,30.209000
2023-12-23T17:25:18.365Z,30.209000
2023-12-23T17:30:18.384Z,30.202000
2023-12-23T17:35:18.427Z,30.202000
2023-12-23T17:40:18.285Z,30.202000
2023-12-23T17:45:24.760Z,30.196000
2023-12-23T17:50:24.649Z,30.196000
2023-12-23T17:55:24.469Z,30.196000
2023-12-23T18:00:18.445Z,30.192000
2023-12-23T18:05:24.739Z,30.192000
2023-12-23T18:10:16.403Z,30.192000
2023-12-23T18:15:16.400Z,30.190000
2023-12-23T18:20:25.047Z,30.190000
2023-12-23T18:25:24.642Z,30.190000
2023-12-23T18:30:18.455Z,30.183000
2023-12-23T18:35:18.735Z,30.183000
2023-12-23T18:40:24.728Z,30.183000
2023-12-23T18:45:24.776Z,30.187000
2023-12-23T18:50:24.745Z,30.187000
2023-12-23T18:55:24.770Z,30.187000
2023-12-23T19:00:16.583Z,30.186000
2023-12-23T19:05:16.738Z,30.186000
2023-12-23T19:10:18.538Z,30.186000
2023-12-23T19:15:24.727Z,30.185000
2023-12-23T19:20:18.623Z,30.185000
2023-12-23T19:25:18.575Z,30.185000
2023-12-23T19:30:18.591Z,30.181000
2023-12-23T19:35:18.689Z,30.181000
2023-12-23T19:40:24.761Z,30.181000
2023-12-23T19:45:18.850Z,30.187000
2023-12-23T19:50:18.644Z,30.187000
2023-12-23T19:55:16.689Z,30.187000
2023-12-23T20:00:16.670Z,30.192000
2023-12-23T20:05:25.085Z,30.192000
2023-12-23T20:10:18.677Z,30.192000
2023-12-23T20:15:18.576Z,30.192000
2023-12-23T20:20:24.966Z,30.192000
2023-12-23T20:25:24.969Z,30.192000
2023-12-23T20:30:18.752Z,30.191000
2023-12-23T20:35:18.933Z,30.191000
2023-12-23T20:40:25.097Z,30.191000
2023-12-23T20:45:24.962Z,30.191000
2023-12-23T20:50:16.924Z,30.191000
2023-12-23T20:55:24.972Z,30.191000
2023-12-23T21:00:24.907Z,30.193000
2023-12-23T21:05:25.137Z,30.193000
2023-12-23T21:10:18.865Z,30.193000
2023-12-23T21:15:18.801Z,30.193000
2023-12-23T21:20:18.922Z,30.193000
2023-12-23T21:25:25.270Z,30.193000
2023-12-23T21:30:25.082Z,30.194000
2023-12-23T21:35:25.111Z,30.194000
2023-12-23T21:40:16.927Z,30.194000
2023-12-23T21:45:16.943Z,30.197000
2023-12-23T21:50:25.225Z,30.197000
2023-12-23T21:55:18.978Z,30.197000
2023-12-23T22:00:25.108Z,30.200000
2023-12-23T22:05:19.005Z,30.200000
2023-12-23T22:10:25.067Z,30.200000
2023-12-23T22:15:25.034Z,30.199000
2023-12-23T22:21:02.444Z,30.199000
2023-12-23T22:25:18.909Z,30.199000
2023-12-23T22:30:19.268Z,30.199000
2023-12-23T22:35:17.141Z,30.199000
2023-12-23T22:40:16.978Z,30.199000
2023-12-23T22:45:25.224Z,30.201000
2023-12-23T22:50:19.016Z,30.201000
2023-12-23T22:55:19.085Z,30.201000
2023-12-23T23:00:25.280Z,30.205000
2023-12-23T23:05:25.559Z,30.205000
2023-12-23T23:10:18.930Z,30.205000
2023-12-23T23:15:19.039Z,30.209000
2023-12-23T23:20:19.176Z,30.209000
2023-12-23T23:25:25.645Z,30.209000
2023-12-23T23:30:17.085Z,30.213000
2023-12-23T23:35:19.181Z,30.213000
2023-12-23T23:40:19.133Z,30.213000
2023-12-23T23:45:25.325Z,30.218000
2023-12-23T23:50:25.491Z,30.218000
2023-12-23T23:55:25.371Z,30.218000
